Time;durP1;ratioP1;P1;durP2;ratioP2;P2;SDS_P1;SDS_P2;PMS_P1;PMS_P2;Temp;Humidity;BMP_temperature;BMP_pressure;BME280_temperature;BME280_humidity;BME280_pressure;Samples;Min_cycle;Max_cycle;Signal;HPM_P1;HPM_P2
2024/04/05 00:02:22;;;;;;;1999.90;999.90;;;15.40;61.20;;;;;;5024817;28;20040;-77
2024/04/05 00:04:48;;;;;;;1999.90;999.90;;;15.40;60.40;;;;;;5022806;28;20022;-78
2024/04/05 00:07:14;;;;;;;1999.90;999.90;;;15.40;60.20;;;;;;5021971;28;20037;-77
2024/04/05 00:09:41;;;;;;;1999.90;999.90;;;15.60;59.30;;;;;;5022775;28;20255;-77
2024/04/05 00:12:06;;;;;;;1999.90;999.90;;;15.70;58.30;;;;;;5026491;28;20554;-77
2024/04/05 00:14:32;;;;;;;1999.90;999.90;;;15.60;58.20;;;;;;5021019;28;20044;-77
2024/04/05 00:16:58;;;;;;;1999.90;999.90;;;15.70;57.80;;;;;;5019984;28;20029;-78
2024/04/05 00:19:24;;;;;;;1999.90;999.90;;;15.70;57.50;;;;;;5022055;28;20048;-78
2024/04/05 00:21:50;;;;;;;1999.90;999.90;;;15.70;57.40;;;;;;5023124;28;20046;-77
2024/04/05 00:24:15;;;;;;;1999.90;999.90;;;15.70;57.10;;;;;;5022318;28;20033;-78
2024/04/05 00:26:41;;;;;;;1999.90;999.90;;;15.80;56.70;;;;;;5022846;28;20059;-77
2024/04/05 00:29:07;;;;;;;1999.90;999.90;;;15.70;56.70;;;;;;5025203;28;20040;-77
2024/04/05 00:31:34;;;;;;;1999.90;999.90;;;15.50;57.40;;;;;;5029194;28;20044;-77
2024/04/05 00:34:00;;;;;;;1999.90;999.90;;;15.60;57.00;;;;;;5022769;28;20113;-78
2024/04/05 00:36:25;;;;;;;1999.90;999.90;;;15.50;57.10;;;;;;5022950;28;20439;-78
2024/04/05 00:38:54;;;;;;;1999.90;999.90;;;15.60;56.60;;;;;;5022280;28;20576;-78
2024/04/05 00:41:19;;;;;;;1999.90;999.90;;;15.60;56.60;;;;;;5022624;28;20033;-78
2024/04/05 00:43:45;;;;;;;1999.90;999.90;;;15.50;56.30;;;;;;5022573;28;20637;-78
2024/04/05 00:46:11;;;;;;;1999.90;999.90;;;15.30;56.80;;;;;;5023122;28;20118;-78
2024/04/05 00:48:37;;;;;;;1999.90;999.90;;;15.40;56.60;;;;;;5022308;28;20040;-77
2024/04/05 00:51:06;;;;;;;1999.90;999.90;;;15.30;56.80;;;;;;5021635;28;20939;-78
2024/04/05 00:53:33;;;;;;;1999.90;999.90;;;15.30;56.60;;;;;;5023482;28;20041;-78
2024/04/05 00:56:00;;;;;;;1999.90;999.90;;;15.40;56.50;;;;;;5022153;28;20128;-77
2024/04/05 00:58:27;;;;;;;1999.90;999.90;;;15.40;56.00;;;;;;5020834;28;20080;-77
2024/04/05 01:00:53;;;;;;;1999.90;999.90;;;15.30;56.00;;;;;;5021874;28;20037;-77
2024/04/05 01:03:19;;;;;;;1999.90;999.90;;;15.30;56.40;;;;;;5022607;28;20030;-78
2024/04/05 01:05:48;;;;;;;1999.90;999.90;;;15.50;56.00;;;;;;5022068;28;20036;-77
2024/04/05 01:08:14;;;;;;;1999.90;999.90;;;15.40;55.70;;;;;;5021939;28;20033;-78
2024/04/05 01:10:41;;;;;;;1999.90;999.90;;;15.50;55.70;;;;;;5021808;28;20779;-78
2024/04/05 01:13:10;;;;;;;1999.90;999.90;;;15.70;54.70;;;;;;5022886;28;20036;-78
2024/04/05 01:15:36;;;;;;;1999.90;999.90;;;15.30;56.00;;;;;;5021150;28;20036;-78
2024/04/05 01:18:04;;;;;;;1999.90;999.90;;;15.40;55.30;;;;;;5022200;28;20087;-79
2024/04/05 01:20:31;;;;;;;1999.90;999.90;;;15.40;55.20;;;;;;5019768;28;20062;-78
2024/04/05 01:23:05;;;;;;;1999.90;999.90;;;15.30;55.70;;;;;;5021187;28;20033;-78
2024/04/05 01:25:31;;;;;;;1999.90;999.90;;;15.30;55.70;;;;;;5021730;28;20033;-78
2024/04/05 01:27:59;;;;;;;1999.90;999.90;;;15.10;56.50;;;;;;5021081;28;20021;-78
2024/04/05 01:30:25;;;;;;;1999.90;999.90;;;15.30;55.60;;;;;;5020251;28;20591;-79
2024/04/05 01:32:56;;;;;;;1999.90;999.90;;;15.20;56.00;;;;;;5021429;28;20040;-77
2024/04/05 01:35:22;;;;;;;1999.90;999.90;;;15.20;55.90;;;;;;5022179;28;20416;-80
2024/04/05 01:37:47;;;;;;;1999.90;999.90;;;15.30;55.80;;;;;;5020593;28;20018;-79
2024/04/05 01:40:13;;;;;;;1999.90;999.90;;;15.20;56.00;;;;;;5020790;28;20420;-79
2024/04/05 01:42:39;;;;;;;1999.90;999.90;;;15.20;56.00;;;;;;5022017;28;20128;-78
2024/04/05 01:45:05;;;;;;;1999.90;999.90;;;15.10;56.40;;;;;;5021045;28;20485;-79
2024/04/05 01:47:31;;;;;;;1999.90;999.90;;;15.40;55.60;;;;;;5021878;28;20951;-78
2024/04/05 01:49:56;;;;;;;1999.90;999.90;;;15.30;55.90;;;;;;5021652;28;20107;-79
2024/04/05 01:52:22;;;;;;;1999.90;999.90;;;15.20;56.20;;;;;;5022045;28;20030;-79
2024/04/05 01:54:48;;;;;;;1999.90;999.90;;;15.30;55.90;;;;;;5021899;28;20030;-79
2024/04/05 01:57:14;;;;;;;1999.90;999.90;;;15.30;56.10;;;;;;5020963;28;20049;-78
2024/04/05 01:59:45;;;;;;;1999.90;999.90;;;15.40;55.70;;;;;;5021413;28;20038;-78
2024/04/05 02:02:11;;;;;;;1999.90;999.90;;;15.40;55.90;;;;;;5016121;28;20042;-78
2024/04/05 02:04:36;;;;;;;1999.90;999.90;;;15.10;57.20;;;;;;5021632;28;20056;-77
2024/04/05 02:07:02;;;;;;;1999.90;999.90;;;15.30;56.80;;;;;;5022422;28;20063;-78
2024/04/05 02:09:28;;;;;;;1999.90;999.90;;;15.40;56.30;;;;;;5025070;28;20124;-78
2024/04/05 02:11:54;;;;;;;1999.90;999.90;;;15.20;57.00;;;;;;5018230;28;20084;-78
2024/04/05 02:14:19;;;;;;;1999.90;999.90;;;15.20;57.00;;;;;;5020809;28;20831;-78
2024/04/05 02:16:45;;;;;;;1999.90;999.90;;;15.10;57.30;;;;;;5021126;28;20049;-78
2024/04/05 02:19:10;;;;;;;1999.90;999.90;;;15.30;56.60;;;;;;5027860;28;20025;-78
2024/04/05 02:21:36;;;;;;;1999.90;999.90;;;15.20;57.50;;;;;;5026236;28;20048;-78
2024/04/05 02:24:02;;;;;;;1999.90;999.90;;;15.00;57.90;;;;;;5027300;28;20025;-78
2024/04/05 02:26:27;;;;;;;1999.90;999.90;;;14.90;58.10;;;;;;5025775;28;20029;-79
2024/04/05 02:28:53;;;;;;;1999.90;999.90;;;15.00;57.90;;;;;;5025233;28;20125;-79
2024/04/05 02:31:19;;;;;;;1999.90;999.90;;;15.10;57.90;;;;;;5025910;28;20086;-79
2024/04/05 02:33:44;;;;;;;1999.90;999.90;;;14.90;58.30;;;;;;5025498;28;20203;-78
2024/04/05 02:36:10;;;;;;;1999.90;999.90;;;14.90;58.30;;;;;;5024162;28;20095;-79
2024/04/05 02:38:36;;;;;;;1999.90;999.90;;;14.90;58.40;;;;;;5024787;28;20124;-79
2024/04/05 02:41:04;;;;;;;1999.90;999.90;;;14.90;58.70;;;;;;5025130;28;20033;-79
2024/04/05 02:43:29;;;;;;;1999.90;999.90;;;14.80;58.90;;;;;;5025170;28;20033;-79
2024/04/05 02:45:55;;;;;;;1999.90;999.90;;;14.50;59.40;;;;;;5024764;28;20029;-79
2024/04/05 02:48:21;;;;;;;1999.90;999.90;;;14.60;59.60;;;;;;5025061;28;20759;-78
2024/04/05 02:50:46;;;;;;;1999.90;999.90;;;14.60;59.50;;;;;;5025586;28;20063;-79
2024/04/05 02:53:12;;;;;;;1999.90;999.90;;;14.80;59.10;;;;;;5024381;28;20124;-78
2024/04/05 02:55:38;;;;;;;1999.90;999.90;;;14.70;59.70;;;;;;5028664;28;20832;-81
2024/04/05 02:58:03;;;;;;;1999.90;999.90;;;14.60;59.80;;;;;;5024817;28;20522;-79
2024/04/05 03:00:29;;;;;;;1999.90;999.90;;;14.60;60.40;;;;;;5020419;28;20041;-79
2024/04/05 03:02:55;;;;;;;1999.90;999.90;;;14.60;60.20;;;;;;5024987;28;20032;-78
2024/04/05 03:05:21;;;;;;;1999.90;999.90;;;14.50;60.40;;;;;;5024597;28;20099;-78
2024/04/05 03:07:47;;;;;;;1999.90;999.90;;;14.50;60.50;;;;;;5025213;28;20115;-78
2024/04/05 03:10:13;;;;;;;;;;;14.70;60.70;;;;;;5037033;28;20028;-78
2024/04/05 03:12:39;;;;;;;1999.90;999.90;;;14.60;60.30;;;;;;5024683;28;19917;-79
2024/04/05 03:15:05;;;;;;;1999.90;999.90;;;14.70;60.20;;;;;;5024179;28;20910;-79
2024/04/05 03:17:31;;;;;;;;;;;14.50;60.60;;;;;;5024743;28;20029;-79
2024/04/05 03:19:56;;;;;;;1999.90;999.90;;;14.40;61.00;;;;;;5023578;28;19948;-79
2024/04/05 03:22:22;;;;;;;1999.90;999.90;;;14.60;60.50;;;;;;5023850;28;20107;-80
2024/04/05 03:24:48;;;;;;;1999.90;999.90;;;14.40;61.20;;;;;;5023973;28;20067;-78
2024/04/05 03:27:13;;;;;;;1999.90;999.90;;;14.50;61.10;;;;;;5024428;28;20030;-77
2024/04/05 03:29:39;;;;;;;1999.90;999.90;;;14.30;61.50;;;;;;5023091;28;20026;-77
2024/04/05 03:32:05;;;;;;;1999.90;999.90;;;14.60;61.20;;;;;;5024668;28;20886;-77
2024/04/05 03:34:30;;;;;;;1999.90;999.90;;;14.60;61.20;;;;;;5023410;28;20032;-77
2024/04/05 03:36:56;;;;;;;1999.90;999.90;;;14.60;61.10;;;;;;5023997;28;20034;-78
2024/04/05 03:39:22;;;;;;;1999.90;999.90;;;14.60;61.10;;;;;;5023641;28;20034;-78
2024/04/05 03:41:49;;;;;;;1999.90;999.90;;;14.60;61.00;;;;;;5023548;28;20044;-77
2024/04/05 03:44:15;;;;;;;1999.90;999.90;;;14.50;61.40;;;;;;5023476;28;20107;-77
2024/04/05 03:46:42;;;;;;;1999.90;999.90;;;14.50;61.50;;;;;;5022417;28;20029;-77
2024/04/05 03:49:08;;;;;;;1999.90;999.90;;;14.50;61.40;;;;;;5023926;28;20141;-77
2024/04/05 03:51:34;;;;;;;1999.90;999.90;;;14.40;61.90;;;;;;5024403;28;20104;-77
2024/04/05 03:54:00;;;;;;;1999.90;999.90;;;14.50;61.70;;;;;;5024417;28;20112;-77
2024/04/05 03:56:25;;;;;;;1999.90;999.90;;;14.40;62.00;;;;;;5023856;28;20509;-77
2024/04/05 03:58:51;;;;;;;1999.90;999.90;;;14.40;62.10;;;;;;5024016;28;20041;-78
2024/04/05 04:01:17;;;;;;;1999.90;999.90;;;14.30;62.50;;;;;;5023611;28;20045;-77
2024/04/05 04:03:44;;;;;;;1999.90;999.90;;;14.30;62.30;;;;;;5023625;28;20037;-79
2024/04/05 04:06:10;;;;;;;1999.90;999.90;;;14.20;62.70;;;;;;5022621;28;20032;-79
2024/04/05 04:08:36;;;;;;;1999.90;999.90;;;14.30;62.70;;;;;;5021750;28;20034;-79
2024/04/05 04:11:05;;;;;;;1999.90;999.90;;;14.40;62.40;;;;;;5022983;28;20033;-78
2024/04/05 04:13:30;;;;;;;1999.90;999.90;;;14.60;62.00;;;;;;5022630;28;20863;-78
2024/04/05 04:15:57;;;;;;;1999.90;999.90;;;14.70;61.70;;;;;;5023240;28;20021;-78
2024/04/05 04:18:22;;;;;;;1999.90;999.90;;;14.70;61.40;;;;;;5026464;28;20408;-78
2024/04/05 04:20:49;;;;;;;1999.90;999.90;;;14.90;61.10;;;;;;5028179;28;20037;-77
2024/04/05 04:23:14;;;;;;;1999.90;999.90;;;14.80;61.30;;;;;;5023445;28;20029;-78
2024/04/05 04:25:40;;;;;;;1999.90;999.90;;;14.80;61.40;;;;;;5023121;28;20428;-78
2024/04/05 04:28:09;;;;;;;1999.90;999.90;;;14.70;61.60;;;;;;5022995;28;20556;-78
2024/04/05 04:30:34;;;;;;;1999.90;999.90;;;14.60;62.00;;;;;;5018897;28;20025;-79
2024/04/05 04:33:01;;;;;;;1999.90;999.90;;;14.50;62.10;;;;;;5025988;28;20104;-80
2024/04/05 04:35:27;;;;;;;1999.90;999.90;;;14.30;62.60;;;;;;5023500;28;20501;-79
2024/04/05 04:37:53;;;;;;;1999.90;999.90;;;14.40;62.50;;;;;;5022428;28;20024;-79
2024/04/05 04:40:19;;;;;;;1999.90;999.90;;;14.50;62.10;;;;;;5019787;28;20091;-78
2024/04/05 04:42:44;;;;;;;1999.90;999.90;;;14.60;62.30;;;;;;5022214;28;20468;-78
2024/04/05 04:45:10;;;;;;;1999.90;999.90;;;14.50;62.00;;;;;;5021974;28;20025;-76
2024/04/05 04:47:37;;;;;;;1999.90;999.90;;;14.40;62.50;;;;;;5015756;28;20049;-76
2024/04/05 04:50:04;;;;;;;1999.90;999.90;;;14.50;62.20;;;;;;5029118;28;20055;-76
2024/04/05 04:52:30;;;;;;;1999.90;999.90;;;14.60;62.10;;;;;;5019815;28;20022;-77
2024/04/05 04:54:59;;;;;;;1999.90;999.90;;;14.50;62.40;;;;;;5022414;28;20034;-76
2024/04/05 04:57:25;;;;;;;1999.90;999.90;;;14.40;62.70;;;;;;5023085;28;20053;-77
2024/04/05 04:59:51;;;;;;;1999.90;999.90;;;14.40;62.80;;;;;;5021505;28;20908;-77
2024/04/05 05:02:17;;;;;;;1999.90;999.90;;;14.40;62.70;;;;;;5027168;28;20133;-77
2024/04/05 05:04:43;;;;;;;1999.90;999.90;;;14.40;62.30;;;;;;5026791;28;20040;-77
2024/04/05 05:07:09;;;;;;;1999.90;999.90;;;14.30;62.90;;;;;;5021402;28;20028;-76
2024/04/05 05:09:35;;;;;;;1999.90;999.90;;;14.20;63.60;;;;;;5022298;28;20033;-77
2024/04/05 05:12:00;;;;;;;1999.90;999.90;;;13.90;64.70;;;;;;5022644;28;20040;-77
2024/04/05 05:14:27;;;;;;;1999.90;999.90;;;14.00;64.30;;;;;;5021971;28;20021;-76
2024/04/05 05:16:53;;;;;;;1999.90;999.90;;;13.90;64.50;;;;;;5022676;28;20075;-77
2024/04/05 05:19:18;;;;;;;1999.90;999.90;;;13.80;64.70;;;;;;5022723;28;20120;-77
2024/04/05 05:21:44;;;;;;;1999.90;999.90;;;13.70;65.00;;;;;;5027317;28;20038;-76
2024/04/05 05:24:10;;;;;;;1999.90;999.90;;;13.80;65.00;;;;;;5022901;28;20029;-77
2024/04/05 05:26:35;;;;;;;1999.90;999.90;;;13.80;65.20;;;;;;5022925;28;20057;-76
2024/04/05 05:29:01;;;;;;;1999.90;999.90;;;13.80;65.00;;;;;;5028995;28;20040;-76
2024/04/05 05:31:27;;;;;;;1999.90;999.90;;;13.90;64.30;;;;;;5023731;28;20055;-77
2024/04/05 05:33:53;;;;;;;1999.90;999.90;;;14.10;63.60;;;;;;5028153;28;20041;-76
2024/04/05 05:36:18;;;;;;;1999.90;999.90;;;14.10;63.90;;;;;;5023798;28;20033;-79
2024/04/05 05:38:44;;;;;;;1999.90;999.90;;;14.00;64.00;;;;;;5023271;28;20029;-79
2024/04/05 05:41:10;;;;;;;1999.90;999.90;;;14.00;64.10;;;;;;5015920;28;20560;-79
2024/04/05 05:43:35;;;;;;;1999.90;999.90;;;14.20;63.60;;;;;;5020668;28;20025;-79
2024/04/05 05:46:01;;;;;;;1999.90;999.90;;;14.10;63.90;;;;;;5020843;28;20026;-79
2024/04/05 05:48:27;;;;;;;1999.90;999.90;;;14.00;64.10;;;;;;5020837;28;20036;-79
2024/04/05 05:50:53;;;;;;;1999.90;999.90;;;14.10;63.90;;;;;;5021199;28;20037;-79
2024/04/05 05:53:19;;;;;;;1999.90;999.90;;;14.10;63.70;;;;;;5025120;28;20033;-79
2024/04/05 05:55:50;;;;;;;1999.90;999.90;;;14.10;64.10;;;;;;5024986;28;20049;-78
2024/04/05 05:58:16;;;;;;;1999.90;999.90;;;14.20;64.00;;;;;;5026978;28;20055;-78
2024/04/05 06:00:41;;;;;;;1999.90;999.90;;;14.30;63.50;;;;;;5028983;28;20476;-78
2024/04/05 06:03:07;;;;;;;1999.90;999.90;;;14.50;63.00;;;;;;5026128;28;20025;-78
2024/04/05 06:05:33;;;;;;;1999.90;999.90;;;14.80;62.30;;;;;;5026525;28;20025;-79
2024/04/05 06:07:59;;;;;;;1999.90;999.90;;;15.20;61.70;;;;;;5025678;28;20065;-78
2024/04/05 06:10:25;;;;;;;1999.90;999.90;;;15.50;60.50;;;;;;5025694;28;20115;-80
2024/04/05 06:12:51;;;;;;;1999.90;999.90;;;16.10;59.30;;;;;;5025801;28;20116;-79
2024/04/05 06:15:16;;;;;;;1999.90;999.90;;;16.60;57.10;;;;;;5024392;28;20026;-79
2024/04/05 06:17:46;;;;;;;1999.90;999.90;;;17.10;56.10;;;;;;5029425;28;20037;-79
2024/04/05 06:20:12;;;;;;;1999.90;999.90;;;17.30;56.90;;;;;;5023488;28;20041;-81
2024/04/05 06:22:38;;;;;;;1999.90;999.90;;;17.30;55.90;;;;;;5024317;28;20025;-80
2024/04/05 06:25:04;;;;;;;1999.90;999.90;;;17.30;55.50;;;;;;5025879;28;20033;-81
2024/04/05 06:27:30;;;;;;;1999.90;999.90;;;17.50;54.90;;;;;;5025852;28;20087;-80
2024/04/05 06:29:56;;;;;;;1999.90;999.90;;;17.90;53.80;;;;;;5025941;28;20131;-80
2024/04/05 06:32:23;;;;;;;1999.90;999.90;;;18.60;54.00;;;;;;5030232;28;20601;-80
2024/04/05 06:34:50;;;;;;;1999.90;999.90;;;19.20;52.80;;;;;;5030538;28;20048;-80
2024/04/05 06:37:16;;;;;;;1999.90;999.90;;;18.80;53.50;;;;;;5025639;28;20022;-80
2024/04/05 06:39:42;;;;;;;1999.90;999.90;;;19.30;55.50;;;;;;5026250;28;20492;-80
2024/04/05 06:42:09;;;;;;;1999.90;999.90;;;20.80;51.10;;;;;;5024484;28;20041;-80
2024/04/05 06:44:35;;;;;;;1999.90;999.90;;;21.80;49.80;;;;;;5025939;28;20404;-80
2024/04/05 06:47:08;;;;;;;1999.90;999.90;;;20.50;49.90;;;;;;5024403;28;20040;-80
2024/04/05 06:49:35;;;;;;;1999.90;999.90;;;20.30;52.50;;;;;;5024392;28;20179;-80
2024/04/05 06:52:04;;;;;;;1999.90;999.90;;;20.00;51.30;;;;;;5024496;28;20048;-80
2024/04/05 06:54:30;;;;;;;1999.90;999.90;;;20.40;51.50;;;;;;5024139;28;20084;-80
2024/04/05 06:56:56;;;;;;;1999.90;999.90;;;20.70;50.50;;;;;;5025023;28;20046;-80
2024/04/05 06:59:22;;;;;;;1999.90;999.90;;;21.30;49.60;;;;;;5025166;28;20052;-80
2024/04/05 07:01:52;;;;;;;1999.90;999.90;;;21.70;49.10;;;;;;5025102;28;20802;-80
2024/04/05 07:04:20;;;;;;;1999.90;999.90;;;22.10;48.00;;;;;;5017348;28;20041;-80
2024/04/05 07:06:45;;;;;;;1999.90;999.90;;;22.90;46.90;;;;;;5018253;28;20029;-80
2024/04/05 07:09:12;;;;;;;1999.90;999.90;;;22.90;46.50;;;;;;5025279;28;20029;-80
2024/04/05 07:11:38;;;;;;;1999.90;999.90;;;23.00;48.00;;;;;;5025574;28;20550;-80
2024/04/05 07:14:04;;;;;;;1999.90;999.90;;;23.30;46.20;;;;;;5025348;28;20037;-80
2024/04/05 07:16:29;;;;;;;1999.90;999.90;;;23.30;47.60;;;;;;5024756;28;20037;-80
2024/04/05 07:18:55;;;;;;;1999.90;999.90;;;23.80;44.80;;;;;;5029688;28;20128;-80
2024/04/05 07:21:20;;;;;;;1999.90;999.90;;;23.10;44.20;;;;;;5024814;28;20072;-80
2024/04/05 07:23:47;;;;;;;1999.90;999.90;;;22.60;44.50;;;;;;5022929;28;20160;-80
2024/04/05 07:26:13;;;;;;;1999.90;999.90;;;22.40;45.80;;;;;;5023409;28;20033;-80
2024/04/05 07:28:38;;;;;;;1999.90;999.90;;;23.60;44.80;;;;;;5024476;28;20030;-80
2024/04/05 07:31:04;;;;;;;1999.90;999.90;;;23.80;42.40;;;;;;5023135;28;20420;-80
2024/04/05 07:33:30;;;;;;;1999.90;999.90;;;24.10;41.80;;;;;;5024861;28;20456;-80
2024/04/05 07:35:58;;;;;;;;;;;25.50;40.90;;;;;;5013444;28;20026;-80
2024/04/05 07:38:25;;;;;;;1999.90;999.90;;;24.70;41.40;;;;;;5024487;28;19959;-81
2024/04/05 07:40:51;;;;;;;1999.90;999.90;;;25.00;40.60;;;;;;5024391;28;20391;-80
2024/04/05 07:43:16;;;;;;;;;;;25.60;39.00;;;;;;5025407;28;20749;-80
2024/04/05 07:45:42;;;;;;;1999.90;999.90;;;24.60;40.80;;;;;;5024196;28;19913;-80
2024/04/05 07:48:08;;;;;;;1999.90;999.90;;;25.80;38.40;;;;;;5024164;28;20049;-80
2024/04/05 07:50:33;;;;;;;;;;;25.00;39.40;;;;;;5024974;28;20091;-80
2024/04/05 07:53:00;;;;;;;1999.90;999.90;;;25.20;40.90;;;;;;5027189;28;19909;-80
2024/04/05 07:55:25;;;;;;;1999.90;999.90;;;25.90;39.30;;;;;;5023672;28;20045;-80
2024/04/05 07:57:53;;;;;;;1999.90;999.90;;;24.90;38.60;;;;;;5023927;28;20041;-80
2024/04/05 08:00:20;;;;;;;1999.90;999.90;;;25.60;37.90;;;;;;5027545;28;20028;-80
2024/04/05 08:02:52;;;;;;;1999.90;999.90;;;25.70;38.30;;;;;;5023768;28;20026;-80
2024/04/05 08:05:19;;;;;;;1999.90;999.90;;;26.00;37.70;;;;;;5023654;28;20071;-81
2024/04/05 08:07:44;;;;;;;1999.90;999.90;;;25.50;38.20;;;;;;5017490;28;20043;-81
2024/04/05 08:10:10;;;;;;;1999.90;999.90;;;25.30;38.90;;;;;;5023700;28;20029;-80
2024/04/05 08:12:37;;;;;;;1999.90;999.90;;;25.40;37.20;;;;;;5023769;28;20753;-80
2024/04/05 08:15:04;;;;;;;1999.90;999.90;;;26.50;36.70;;;;;;5022955;28;20029;-81
2024/04/05 08:17:29;;;;;;;1999.90;999.90;;;27.60;35.90;;;;;;5028048;28;20169;-81
2024/04/05 08:19:55;;;;;;;1999.90;999.90;;;25.80;37.10;;;;;;5022788;28;20025;-80
2024/04/05 08:22:21;;;;;;;;;;;26.60;37.10;;;;;;5025264;28;20025;-81
2024/04/05 08:24:47;;;;;;;1999.90;999.90;;;27.50;36.00;;;;;;5023901;28;19909;-80
2024/04/05 08:27:13;;;;;;;1999.90;999.90;;;26.60;36.00;;;;;;5023951;28;20060;-80
2024/04/05 08:29:40;;;;;;;1999.90;999.90;;;26.90;37.20;;;;;;5023712;28;20455;-80
2024/04/05 08:32:06;;;;;;;1999.90;999.90;;;28.20;36.80;;;;;;5031286;28;20033;-81
2024/04/05 08:34:32;;;;;;;1999.90;999.90;;;28.90;36.50;;;;;;5023571;28;20111;-81
2024/04/05 08:36:59;;;;;;;1999.90;999.90;;;29.90;35.10;;;;;;5023710;28;20116;-81
2024/04/05 08:39:25;;;;;;;1999.90;999.90;;;29.90;34.50;;;;;;5023483;28;20116;-81
2024/04/05 08:41:51;;;;;;;1999.90;999.90;;;29.10;34.50;;;;;;5023035;28;20507;-81
2024/04/05 08:44:17;;;;;;;1999.90;999.90;;;29.40;35.80;;;;;;5022121;28;20084;-80
2024/04/05 08:46:43;;;;;;;1999.90;999.90;;;30.10;35.90;;;;;;5023436;28;20411;-81
2024/04/05 08:49:10;;;;;;;1999.90;999.90;;;30.90;32.90;;;;;;5023610;28;20121;-80
2024/04/05 08:51:41;;;;;;;1999.90;999.90;;;30.60;32.40;;;;;;5023865;28;20041;-81
2024/04/05 08:54:09;;;;;;;1999.90;999.90;;;30.20;33.50;;;;;;5023242;28;20477;-81
2024/04/05 08:56:35;;;;;;;1999.90;999.90;;;30.60;35.10;;;;;;5024081;28;20129;-81
2024/04/05 08:59:03;;;;;;;1999.90;999.90;;;30.60;32.70;;;;;;5022945;28;20832;-81
2024/04/05 09:01:29;;;;;;;1999.90;999.90;;;30.40;33.90;;;;;;5025858;28;20421;-81
2024/04/05 09:03:55;;;;;;;1999.90;999.90;;;30.40;34.90;;;;;;5022881;28;20026;-81
2024/04/05 09:06:21;;;;;;;1999.90;999.90;;;30.20;35.00;;;;;;5016052;28;20026;-81
2024/04/05 09:08:52;;;;;;;1999.90;999.90;;;29.90;34.40;;;;;;5022591;28;20033;-80
2024/04/05 09:11:25;;;;;;;1999.90;999.90;;;28.00;35.40;;;;;;5023158;28;20116;-80
2024/04/05 09:13:58;;;;;;;1999.90;999.90;;;27.20;36.40;;;;;;5022404;28;20025;-81
2024/04/05 09:16:25;;;;;;;1999.90;999.90;;;27.70;38.60;;;;;;5023402;28;20021;-81
2024/04/05 09:18:51;;;;;;;1999.90;999.90;;;28.70;35.40;;;;;;5027014;28;20734;-80
2024/04/05 09:21:18;;;;;;;1999.90;999.90;;;29.00;33.30;;;;;;5022964;28;20029;-80
2024/04/05 09:23:49;;;;;;;1999.90;999.90;;;29.10;35.50;;;;;;5020193;28;20793;-80
2024/04/05 09:26:19;;;;;;;1999.90;999.90;;;30.50;34.30;;;;;;5022622;28;20489;-80
2024/04/05 09:28:46;;;;;;;1999.90;999.90;;;31.00;34.00;;;;;;5022176;28;20067;-80
2024/04/05 09:31:18;;;;;;;1999.90;999.90;;;30.00;31.50;;;;;;5021969;28;20650;-80
2024/04/05 09:33:44;;;;;;;1999.90;999.90;;;29.90;31.60;;;;;;5021301;28;20037;-80
2024/04/05 09:36:13;;;;;;;1999.90;999.90;;;29.10;33.00;;;;;;5011048;28;20452;-80
2024/04/05 09:38:40;;;;;;;1999.90;999.90;;;30.30;33.20;;;;;;5022658;28;20021;-80
2024/04/05 09:41:08;;;;;;;1999.90;999.90;;;30.90;31.60;;;;;;5023313;28;20501;-81
2024/04/05 09:43:35;;;;;;;1999.90;999.90;;;31.60;33.50;;;;;;5022199;28;20103;-80
2024/04/05 09:46:04;;;;;;;1999.90;999.90;;;31.90;32.20;;;;;;5022427;28;20529;-80
2024/04/05 09:48:32;;;;;;;1999.90;999.90;;;31.70;31.00;;;;;;5022937;28;20060;-81
2024/04/05 09:51:02;;;;;;;1999.90;999.90;;;31.40;30.50;;;;;;5022480;28;20082;-81
2024/04/05 09:53:32;;;;;;;1999.90;999.90;;;29.10;33.00;;;;;;5020613;28;20043;-80
2024/04/05 09:56:02;;;;;;;1999.90;999.90;;;28.80;32.10;;;;;;5017199;28;20483;-80
2024/04/05 09:58:28;;;;;;;1999.90;999.90;;;28.20;33.10;;;;;;5018840;28;20030;-80
2024/04/05 10:00:54;;;;;;;1999.90;999.90;;;28.80;31.30;;;;;;5022936;28;20037;-81
2024/04/05 10:03:21;;;;;;;1999.90;999.90;;;29.50;31.70;;;;;;5019885;28;20017;-80
2024/04/05 10:05:46;;;;;;;1999.90;999.90;;;30.70;30.40;;;;;;5017293;28;20504;-80
2024/04/05 10:08:16;;;;;;;1999.90;999.90;;;29.70;30.80;;;;;;5018596;28;20033;-81
2024/04/05 10:10:43;;;;;;;1999.90;999.90;;;28.30;31.90;;;;;;5021908;28;20493;-81
2024/04/05 10:13:14;;;;;;;1999.90;999.90;;;26.90;32.60;;;;;;5021378;28;20069;-81
2024/04/05 10:15:58;;;;;;;1999.90;999.90;;;27.50;34.60;;;;;;5022191;28;20097;-80
2024/04/05 10:18:28;;;;;;;1999.90;999.90;;;27.30;34.60;;;;;;5020784;28;20072;-80
2024/04/05 10:21:00;;;;;;;1999.90;999.90;;;26.30;35.90;;;;;;5021889;28;20033;-80
2024/04/05 10:23:26;;;;;;;1999.90;999.90;;;25.80;39.10;;;;;;5022541;28;20643;-80
2024/04/05 10:25:52;;;;;;;1999.90;999.90;;;25.90;41.30;;;;;;5022103;28;20025;-80
2024/04/05 10:28:18;;;;;;;;;;;25.80;40.60;;;;;;5022632;28;20094;-80
2024/04/05 10:30:45;;;;;;;1999.90;999.90;;;25.60;40.70;;;;;;5022192;28;20012;-80
2024/04/05 10:33:17;;;;;;;1999.90;999.90;;;25.50;39.90;;;;;;5022061;28;20034;-80
2024/04/05 10:35:43;;;;;;;1999.90;999.90;;;24.60;38.20;;;;;;5016541;28;20532;-80
2024/04/05 10:38:09;;;;;;;1999.90;999.90;;;25.00;40.60;;;;;;5030511;28;20021;-80
2024/04/05 10:40:34;;;;;;;1999.90;999.90;;;25.30;40.60;;;;;;5025457;28;20076;-80
2024/04/05 10:43:11;;;;;;;1999.90;999.90;;;25.50;41.20;;;;;;5025430;28;20572;-80
2024/04/05 10:45:41;;;;;;;1999.90;999.90;;;25.30;41.10;;;;;;5025558;28;20041;-80
2024/04/05 10:48:08;;;;;;;1999.90;999.90;;;24.90;43.30;;;;;;5024230;28;20765;-80
2024/04/05 10:50:37;;;;;;;1999.90;999.90;;;25.30;44.30;;;;;;5023794;28;20452;-81
2024/04/05 10:53:03;;;;;;;1999.90;999.90;;;25.30;41.50;;;;;;5025633;28;20120;-80
2024/04/05 10:55:29;;;;;;;1999.90;999.90;;;25.30;41.70;;;;;;5025197;28;20049;-80
2024/04/05 10:57:58;;;;;;;1999.90;999.90;;;25.30;41.30;;;;;;5025814;28;20041;-80
2024/04/05 11:00:24;;;;;;;1999.90;999.90;;;24.90;44.40;;;;;;5024889;28;20033;-80
2024/04/05 11:02:50;;;;;;;1999.90;999.90;;;25.20;42.60;;;;;;5025856;28;20025;-81
2024/04/05 11:05:20;;;;;;;1999.90;999.90;;;25.10;40.90;;;;;;5023949;28;20598;-80
2024/04/05 11:07:56;;;;;;;1999.90;999.90;;;24.80;42.40;;;;;;5025816;28;20029;-80
2024/04/05 11:10:21;;;;;;;1999.90;999.90;;;24.90;44.60;;;;;;5026010;28;20851;-80
2024/04/05 11:12:48;;;;;;;1999.90;999.90;;;24.60;41.30;;;;;;5026206;28;20064;-80
2024/04/05 11:15:18;;;;;;;1999.90;999.90;;;24.40;43.90;;;;;;5025973;28;20079;-80
2024/04/05 11:17:46;;;;;;;1999.90;999.90;;;24.30;44.90;;;;;;5029704;28;20090;-80
2024/04/05 11:20:13;;;;;;;1999.90;999.90;;;24.10;44.90;;;;;;5025559;28;20091;-80
2024/04/05 11:22:39;;;;;;;1999.90;999.90;;;24.50;48.40;;;;;;5023126;28;20021;-80
2024/04/05 11:25:06;;;;;;;1999.90;999.90;;;24.20;44.50;;;;;;5013009;28;20025;-80
2024/04/05 11:27:32;;;;;;;1999.90;999.90;;;24.00;43.30;;;;;;5023292;28;20071;-80
2024/04/05 11:29:58;;;;;;;;;;;23.80;43.80;;;;;;5024819;28;20033;-80
2024/04/05 11:32:32;;;;;;;1999.90;999.90;;;23.90;45.80;;;;;;5024577;28;19913;-81
2024/04/05 11:35:02;;;;;;;1999.90;999.90;;;24.10;48.10;;;;;;5025191;28;20017;-80
2024/04/05 11:37:30;;;;;;;1999.90;999.90;;;23.90;45.10;;;;;;5024762;28;20029;-80
2024/04/05 11:39:58;;;;;;;1999.90;999.90;;;24.00;48.10;;;;;;5024589;28;20045;-80
2024/04/05 11:42:24;;;;;;;1999.90;999.90;;;24.00;47.20;;;;;;5023691;28;20037;-80
2024/04/05 11:44:50;;;;;;;1999.90;999.90;;;24.00;46.30;;;;;;5025337;28;20084;-80
2024/04/05 11:47:21;;;;;;;;;;;23.80;46.70;;;;;;5025081;28;20037;-80
2024/04/05 11:49:49;;;;;;;1999.90;999.90;;;23.70;45.00;;;;;;5021793;28;19913;-80
2024/04/05 11:52:15;;;;;;;1999.90;999.90;;;23.60;44.20;;;;;;5024686;28;20034;-80
2024/04/05 11:54:42;;;;;;;1999.90;999.90;;;23.60;46.40;;;;;;5024387;28;20021;-80
2024/04/05 11:57:13;;;;;;;1999.90;999.90;;;23.70;52.00;;;;;;5025129;28;20156;-80
2024/04/05 11:59:38;;;;;;;1999.90;999.90;;;23.70;46.40;;;;;;5031842;28;20793;-80
2024/04/05 12:02:04;;;;;;;1999.90;999.90;;;23.50;46.90;;;;;;5024311;28;20041;-80